createdAt,value
2018-07-30T00:02:14.682Z,100791.62
2018-07-30T00:04:43.028Z,100790.88
2018-07-30T00:07:11.347Z,100791.69
2018-07-30T00:09:39.688Z,100783.27
2018-07-30T00:12:08.097Z,100790.66
2018-07-30T00:14:36.440Z,100792.99
2018-07-30T00:17:04.744Z,100792.64
2018-07-30T00:19:33.081Z,100793.52
2018-07-30T00:22:01.455Z,100795.56
2018-07-30T00:24:29.778Z,100799.23
2018-07-30T00:26:58.109Z,100792.98
2018-07-30T00:29:26.553Z,100792.38
2018-07-30T00:31:54.905Z,100797.45
2018-07-30T00:34:23.307Z,100795.06
2018-07-30T00:36:51.651Z,100784.84
2018-07-30T00:39:19.976Z,100788.42
2018-07-30T00:41:48.306Z,100781.53
2018-07-30T00:44:16.670Z,100785.70
2018-07-30T00:46:45.047Z,100789.59
2018-07-30T00:49:13.434Z,100799.59
2018-07-30T00:51:41.820Z,100805.33
2018-07-30T00:54:10.213Z,100804.89
2018-07-30T00:56:38.573Z,100790.22
2018-07-30T00:59:06.912Z,100797.39
2018-07-30T01:01:35.231Z,100786.81
2018-07-30T01:04:03.672Z,100791.75
2018-07-30T01:06:32.034Z,100789.30
2018-07-30T01:09:00.408Z,100787.51
2018-07-30T01:11:28.791Z,100797.48
2018-07-30T01:13:57.185Z,100793.16
2018-07-30T01:16:25.601Z,100790.64
2018-07-30T01:18:54.249Z,100793.50
2018-07-30T01:21:22.876Z,100796.80
2018-07-30T01:23:51.194Z,100795.02
2018-07-30T01:26:24.802Z,100795.10
2018-07-30T01:28:53.155Z,100790.39
2018-07-30T01:31:21.462Z,100791.23
2018-07-30T01:33:49.963Z,100794.50
2018-07-30T01:36:18.362Z,100795.02
2018-07-30T01:38:46.700Z,100802.26
2018-07-30T01:41:15.077Z,100797.10
2018-07-30T01:43:43.408Z,100791.98
2018-07-30T01:46:11.799Z,100790.48
2018-07-30T01:48:40.128Z,100798.53
2018-07-30T01:51:08.497Z,100804.21
2018-07-30T01:53:36.864Z,100806.37
2018-07-30T01:56:05.352Z,100810.68
2018-07-30T01:58:33.724Z,100807.47
2018-07-30T02:01:02.109Z,100815.84
2018-07-30T02:03:30.488Z,100812.71
2018-07-30T02:05:58.835Z,100814.50
2018-07-30T02:08:27.216Z,100817.70
2018-07-30T02:10:55.581Z,100810.76
2018-07-30T02:13:23.979Z,100818.00
2018-07-30T02:15:52.396Z,100820.39
2018-07-30T02:18:20.769Z,100818.80
2018-07-30T02:20:49.127Z,100824.73
2018-07-30T02:23:17.462Z,100828.34
2018-07-30T02:25:45.799Z,100830.33
2018-07-30T02:28:14.176Z,100821.91
2018-07-30T02:30:42.559Z,100822.67
2018-07-30T02:33:10.971Z,100823.11
2018-07-30T02:35:39.323Z,100827.25
2018-07-30T02:38:07.704Z,100825.55
2018-07-30T02:40:36.213Z,100832.69
2018-07-30T02:43:04.597Z,100836.94
2018-07-30T02:45:33.002Z,100830.39
2018-07-30T02:48:01.343Z,100834.32
2018-07-30T02:50:29.694Z,100837.73
2018-07-30T02:52:58.036Z,100833.42
2018-07-30T02:55:26.374Z,100838.11
2018-07-30T02:57:54.754Z,100836.59
2018-07-30T03:00:23.053Z,100834.79
2018-07-30T03:02:51.352Z,100833.97
2018-07-30T03:05:19.940Z,100831.29
2018-07-30T03:07:48.286Z,100828.23
2018-07-30T03:10:16.757Z,100829.72
2018-07-30T03:12:45.241Z,100837.14
2018-07-30T03:15:13.627Z,100834.92
2018-07-30T03:17:42.033Z,100844.61
2018-07-30T03:20:10.550Z,100840.94
2018-07-30T03:22:38.909Z,100844.58
2018-07-30T03:25:07.707Z,100846.87
2018-07-30T03:27:36.081Z,100860.40
2018-07-30T03:30:05.720Z,100855.67
2018-07-30T03:32:34.042Z,100855.52
2018-07-30T03:35:02.391Z,100846.37
2018-07-30T03:37:30.748Z,100842.03
2018-07-30T03:39:59.113Z,100843.89
2018-07-30T03:42:27.443Z,100842.35
2018-07-30T03:44:55.828Z,100837.16
2018-07-30T03:47:24.160Z,100840.08
2018-07-30T03:49:52.516Z,100843.66
2018-07-30T03:52:20.926Z,100839.22
2018-07-30T03:54:49.366Z,100840.94
2018-07-30T03:57:17.673Z,100846.59
2018-07-30T03:59:46.015Z,100845.05
2018-07-30T04:02:14.392Z,100853.38
2018-07-30T04:04:42.718Z,100844.53
2018-07-30T04:07:11.025Z,100850.11
2018-07-30T04:09:39.379Z,100848.02
2018-07-30T04:12:07.771Z,100852.56
2018-07-30T04:14:36.117Z,100847.20
2018-07-30T04:17:04.468Z,100851.13
2018-07-30T04:19:32.826Z,100851.07
2018-07-30T04:22:01.136Z,100857.53
2018-07-30T04:24:29.510Z,100861.98
2018-07-30T04:26:57.864Z,100859.54
2018-07-30T04:29:26.195Z,100860.13
2018-07-30T04:31:54.580Z,100856.88
2018-07-30T04:34:22.981Z,100856.36
2018-07-30T04:36:51.395Z,100851.77
2018-07-30T04:39:19.745Z,100861.48
2018-07-30T04:41:48.050Z,100871.00
2018-07-30T04:44:16.387Z,100870.48
2018-07-30T04:46:44.746Z,100872.45
2018-07-30T04:49:13.061Z,100881.25
2018-07-30T04:51:41.416Z,100881.18
2018-07-30T04:54:09.767Z,100867.45
2018-07-30T04:56:38.080Z,100878.58
2018-07-30T04:59:06.391Z,100877.69
2018-07-30T05:01:34.719Z,100879.26
2018-07-30T05:04:03.100Z,100886.17
2018-07-30T05:06:31.458Z,100878.03
2018-07-30T05:08:59.818Z,100884.04
2018-07-30T05:11:28.258Z,100884.10
2018-07-30T05:13:56.643Z,100886.34
2018-07-30T05:16:24.975Z,100880.28
2018-07-30T05:18:53.909Z,100885.38
2018-07-30T05:21:22.259Z,100889.73
2018-07-30T05:23:50.619Z,100886.20
2018-07-30T05:26:18.935Z,100893.50
2018-07-30T05:28:47.340Z,100887.95
2018-07-30T05:31:15.720Z,100891.52
2018-07-30T05:33:44.092Z,100893.86
2018-07-30T05:36:12.415Z,100895.77
2018-07-30T05:38:40.732Z,100901.75
2018-07-30T05:41:09.248Z,100900.67
2018-07-30T05:43:37.571Z,100897.66
2018-07-30T05:46:05.951Z,100896.88
2018-07-30T05:48:34.286Z,100898.72
2018-07-30T05:51:02.603Z,100898.64
2018-07-30T05:53:30.930Z,100897.28
2018-07-30T05:55:59.325Z,100899.23
2018-07-30T05:58:27.643Z,100900.07
2018-07-30T06:00:55.989Z,100905.55
2018-07-30T06:03:24.317Z,100908.98
2018-07-30T06:05:52.697Z,100906.17
2018-07-30T06:08:21.057Z,100903.91
2018-07-30T06:10:49.364Z,100903.00
2018-07-30T06:13:17.701Z,100903.18
2018-07-30T06:15:46.062Z,100908.58
2018-07-30T06:18:14.388Z,100911.81
2018-07-30T06:20:42.739Z,100902.83
2018-07-30T06:23:11.101Z,100906.59
2018-07-30T06:25:39.452Z,100908.75
2018-07-30T06:28:07.764Z,100904.26
2018-07-30T06:30:36.138Z,100905.27
2018-07-30T06:33:04.456Z,100910.08
2018-07-30T06:35:32.852Z,100916.77
2018-07-30T06:38:01.215Z,100918.30
2018-07-30T06:40:29.602Z,100914.45
2018-07-30T06:42:57.918Z,100914.45
2018-07-30T06:45:26.264Z,100907.41
2018-07-30T06:47:54.653Z,100912.48
2018-07-30T06:50:22.991Z,100909.45
2018-07-30T06:52:51.322Z,100905.94
2018-07-30T06:55:19.659Z,100912.36
2018-07-30T06:57:48.000Z,100910.02
2018-07-30T07:00:16.392Z,100912.92
2018-07-30T07:02:44.751Z,100918.36
2018-07-30T07:05:13.063Z,100922.02
2018-07-30T07:07:41.387Z,100919.09
2018-07-30T07:10:11.383Z,100930.41
2018-07-30T07:12:39.888Z,100936.05
2018-07-30T07:15:10.802Z,100937.09
2018-07-30T07:17:39.202Z,100930.64
2018-07-30T07:20:08.052Z,100935.00
2018-07-30T07:22:36.764Z,100939.09
2018-07-30T07:25:05.850Z,100939.59
2018-07-30T07:27:34.173Z,100940.20
2018-07-30T07:30:02.530Z,100940.28
2018-07-30T07:32:30.864Z,100940.55
2018-07-30T07:34:59.249Z,100935.10
2018-07-30T07:37:27.623Z,100939.83
2018-07-30T07:39:55.972Z,100941.30
2018-07-30T07:42:24.304Z,100938.56
2018-07-30T07:44:52.820Z,100943.46
2018-07-30T07:47:21.125Z,100948.41
2018-07-30T07:49:50.069Z,100954.00
2018-07-30T07:52:18.499Z,100954.81
2018-07-30T07:54:46.897Z,100942.58
2018-07-30T07:57:15.221Z,100951.38
2018-07-30T07:59:43.619Z,100955.04
2018-07-30T08:02:12.358Z,100951.36
2018-07-30T08:04:40.694Z,100959.08
2018-07-30T08:07:09.046Z,100958.13
2018-07-30T08:09:41.201Z,100953.34
2018-07-30T08:12:09.493Z,100954.17
2018-07-30T08:14:37.834Z,100956.36
2018-07-30T08:17:06.184Z,100949.59
2018-07-30T08:19:34.614Z,100950.42
2018-07-30T08:22:02.977Z,100950.73
2018-07-30T08:24:31.350Z,100954.80
2018-07-30T08:26:59.702Z,100953.14
2018-07-30T08:29:28.063Z,100950.13
2018-07-30T08:31:56.408Z,100954.53
2018-07-30T08:34:24.744Z,100957.27
2018-07-30T08:36:53.061Z,100959.25
2018-07-30T08:39:21.421Z,100956.83
2018-07-30T08:41:49.824Z,100961.70
2018-07-30T08:44:18.211Z,100958.48
2018-07-30T08:46:46.585Z,100953.58
2018-07-30T08:49:14.927Z,100953.86
2018-07-30T08:51:43.257Z,100949.53
2018-07-30T08:54:11.780Z,100946.23
2018-07-30T08:56:40.123Z,100943.55
2018-07-30T08:59:08.522Z,100946.22
2018-07-30T09:01:36.888Z,100947.59
2018-07-30T09:04:05.441Z,100950.29
2018-07-30T09:06:33.804Z,100949.77
2018-07-30T09:09:02.165Z,100951.38
2018-07-30T09:11:30.661Z,100950.56
2018-07-30T09:13:59.028Z,100946.78
2018-07-30T09:16:27.364Z,100951.38
2018-07-30T09:18:55.751Z,100947.03
2018-07-30T09:21:24.090Z,100952.98
2018-07-30T09:23:52.460Z,100953.20
2018-07-30T09:26:20.811Z,100942.31
2018-07-30T09:28:49.258Z,100956.17
2018-07-30T09:31:18.513Z,100954.25
2018-07-30T09:33:46.828Z,100950.22
2018-07-30T09:36:51.523Z,100955.36
2018-07-30T09:39:19.959Z,100954.00
2018-07-30T09:41:48.261Z,100953.70
2018-07-30T09:44:16.687Z,100945.53
2018-07-30T09:46:45.064Z,100941.17
2018-07-30T09:49:13.451Z,100941.75
2018-07-30T09:51:41.811Z,100939.35
2018-07-30T09:54:10.125Z,100940.19
2018-07-30T09:56:38.468Z,100934.22
2018-07-30T09:59:06.875Z,100935.62
2018-07-30T10:01:35.225Z,100939.98
2018-07-30T10:04:03.693Z,100937.56
2018-07-30T10:06:32.094Z,100931.87
2018-07-30T10:09:00.459Z,100937.58
2018-07-30T10:11:28.861Z,100938.65
2018-07-30T10:13:57.169Z,100931.89
2018-07-30T10:16:25.493Z,100925.62
2018-07-30T10:19:00.433Z,100928.34
2018-07-30T10:21:28.791Z,100934.04
2018-07-30T10:23:57.192Z,100932.73
2018-07-30T10:26:25.527Z,100920.50
2018-07-30T10:28:53.876Z,100924.01
2018-07-30T10:31:22.227Z,100926.70
2018-07-30T10:33:50.567Z,100921.00
2018-07-30T10:36:18.928Z,100919.35
2018-07-30T10:38:47.256Z,100914.98
2018-07-30T10:41:15.598Z,100917.16
2018-07-30T10:43:43.942Z,100916.34
2018-07-30T10:46:12.336Z,100912.27
2018-07-30T10:48:40.691Z,100915.23
2018-07-30T10:51:09.047Z,100916.02
2018-07-30T10:53:37.406Z,100916.86
2018-07-30T10:56:05.827Z,100912.52
2018-07-30T10:58:34.174Z,100907.34
2018-07-30T11:01:02.695Z,100895.06
2018-07-30T11:03:31.033Z,100900.72
2018-07-30T11:05:59.543Z,100906.66
2018-07-30T11:08:27.888Z,100896.83
2018-07-30T11:10:56.200Z,100899.84
2018-07-30T11:13:24.539Z,100897.94
2018-07-30T11:15:52.912Z,100890.13
2018-07-30T11:18:21.359Z,100886.61
2018-07-30T11:20:49.707Z,100889.62
2018-07-30T11:23:18.088Z,100883.39
2018-07-30T11:25:46.369Z,100887.94
2018-07-30T11:28:14.715Z,100887.84
2018-07-30T11:30:43.049Z,100895.88
2018-07-30T11:33:11.354Z,100889.56
2018-07-30T11:35:39.685Z,100885.20
2018-07-30T11:38:08.060Z,100878.90
2018-07-30T11:40:36.417Z,100873.16
2018-07-30T11:43:04.857Z,100876.12
2018-07-30T11:45:33.348Z,100873.45
2018-07-30T11:48:01.718Z,100881.36
2018-07-30T11:50:30.016Z,100877.87
2018-07-30T11:52:58.327Z,100877.93
2018-07-30T11:55:27.238Z,100862.16
2018-07-30T11:57:55.571Z,100871.13
2018-07-30T12:00:23.915Z,100866.50
2018-07-30T12:02:52.274Z,100870.02
2018-07-30T12:05:20.597Z,100867.31
2018-07-30T12:07:48.956Z,100869.85
2018-07-30T12:10:17.356Z,100862.80
2018-07-30T12:12:45.734Z,100865.47
2018-07-30T12:15:14.103Z,100853.22
2018-07-30T12:17:42.732Z,100862.18
2018-07-30T12:20:11.100Z,100860.52
2018-07-30T12:22:39.415Z,100849.63
2018-07-30T12:25:07.737Z,100851.78
2018-07-30T12:27:36.065Z,100847.13
2018-07-30T12:30:04.755Z,100848.98
2018-07-30T12:32:33.045Z,100852.81
2018-07-30T12:35:01.380Z,100850.99
2018-07-30T12:37:29.711Z,100844.81
2018-07-30T12:39:58.081Z,100841.58
2018-07-30T12:42:26.572Z,100847.03
2018-07-30T12:44:54.962Z,100838.47
2018-07-30T12:47:23.303Z,100839.69
2018-07-30T12:49:51.617Z,100840.95
2018-07-30T12:52:20.000Z,100846.09
2018-07-30T12:54:48.417Z,100843.58
2018-07-30T12:57:16.744Z,100852.22
2018-07-30T12:59:45.086Z,100839.86
2018-07-30T13:02:13.436Z,100840.20
2018-07-30T13:04:41.748Z,100846.52
2018-07-30T13:07:10.050Z,100846.68
2018-07-30T13:09:38.378Z,100840.59
2018-07-30T13:12:06.722Z,100845.75
2018-07-30T13:14:35.093Z,100844.41
2018-07-30T13:17:03.412Z,100834.41
2018-07-30T13:19:31.755Z,100836.41
2018-07-30T13:22:00.151Z,100825.61
2018-07-30T13:24:28.500Z,100821.31
2018-07-30T13:26:56.863Z,100813.39
2018-07-30T13:29:25.210Z,100817.34
2018-07-30T13:31:53.573Z,100817.31
2018-07-30T13:34:21.913Z,100817.23
2018-07-30T13:36:50.225Z,100822.08
2018-07-30T13:39:18.509Z,100816.42
2018-07-30T13:41:46.860Z,100824.33
2018-07-30T13:44:15.203Z,100823.28
2018-07-30T13:46:43.564Z,100822.77
2018-07-30T13:49:11.927Z,100820.59
2018-07-30T13:51:40.222Z,100821.95
2018-07-30T13:54:08.576Z,100825.14
2018-07-30T13:56:36.926Z,100831.06
2018-07-30T13:59:05.639Z,100826.14
2018-07-30T14:01:33.963Z,100824.49
2018-07-30T14:04:02.339Z,100824.24
2018-07-30T14:06:30.862Z,100819.13
2018-07-30T14:08:59.101Z,100813.82
2018-07-30T14:11:27.497Z,100816.92
2018-07-30T14:13:55.902Z,100814.76
2018-07-30T14:16:24.344Z,100805.44
2018-07-30T14:18:52.768Z,100809.89
2018-07-30T14:21:21.212Z,100803.49
2018-07-30T14:23:49.527Z,100813.34
2018-07-30T14:26:17.884Z,100810.16
2018-07-30T14:28:46.402Z,100807.23
2018-07-30T14:31:14.731Z,100804.28
2018-07-30T14:33:43.102Z,100809.71
2018-07-30T14:36:11.447Z,100810.04
2018-07-30T14:38:39.755Z,100809.51
2018-07-30T14:41:08.072Z,100805.64
2018-07-30T14:43:36.393Z,100810.84
2018-07-30T14:46:04.988Z,100808.42
2018-07-30T14:48:33.294Z,100809.28
2018-07-30T14:51:01.618Z,100793.48
2018-07-30T14:53:29.983Z,100793.44
2018-07-30T14:55:58.336Z,100792.78
2018-07-30T14:58:26.866Z,100794.01
2018-07-30T15:00:55.209Z,100791.23
2018-07-30T15:03:23.584Z,100782.72
2018-07-30T15:05:51.881Z,100783.77
2018-07-30T15:08:20.255Z,100788.52
2018-07-30T15:10:48.591Z,100781.09
2018-07-30T15:13:16.961Z,100776.72
2018-07-30T15:15:45.373Z,100770.44
2018-07-30T15:18:13.731Z,100776.17
2018-07-30T15:20:42.089Z,100770.82
2018-07-30T15:23:10.423Z,100775.89
2018-07-30T15:25:38.785Z,100767.49
2018-07-30T15:28:07.117Z,100764.55
2018-07-30T15:30:35.505Z,100762.46
2018-07-30T15:33:04.241Z,100762.11
2018-07-30T15:35:32.616Z,100757.42
2018-07-30T15:38:00.973Z,100750.73
2018-07-30T15:40:29.463Z,100756.30
2018-07-30T15:42:57.824Z,100747.77
2018-07-30T15:45:26.130Z,100752.83
2018-07-30T15:47:54.453Z,100756.84
2018-07-30T15:50:22.792Z,100749.56
2018-07-30T15:52:51.282Z,100747.39
2018-07-30T15:55:19.623Z,100747.08
2018-07-30T15:57:47.957Z,100743.00
2018-07-30T16:00:16.313Z,100751.73
2018-07-30T16:02:44.649Z,100756.66
2018-07-30T16:05:15.971Z,100751.70
2018-07-30T16:07:45.038Z,100746.16
2018-07-30T16:10:13.450Z,100746.13
2018-07-30T16:12:41.761Z,100745.91
2018-07-30T16:15:10.889Z,100741.11
2018-07-30T16:17:39.452Z,100740.19
2018-07-30T16:20:08.687Z,100741.72
2018-07-30T16:22:37.112Z,100739.63
2018-07-30T16:25:05.826Z,100736.38
2018-07-30T16:27:34.142Z,100730.34
2018-07-30T16:30:02.478Z,100730.84
2018-07-30T16:32:30.828Z,100735.94
2018-07-30T16:34:59.238Z,100742.39
2018-07-30T16:37:27.582Z,100740.16
2018-07-30T16:39:55.881Z,100736.30
2018-07-30T16:42:24.237Z,100734.41
2018-07-30T16:44:52.610Z,100736.88
2018-07-30T16:47:20.975Z,100736.69
2018-07-30T16:49:49.328Z,100731.27
2018-07-30T16:52:17.773Z,100734.35
2018-07-30T16:54:46.121Z,100736.84
2018-07-30T16:57:14.529Z,100741.29
2018-07-30T16:59:42.856Z,100741.12
2018-07-30T17:02:11.278Z,100744.45
2018-07-30T17:04:39.677Z,100737.41
2018-07-30T17:07:07.993Z,100741.49
2018-07-30T17:09:36.352Z,100741.24
2018-07-30T17:12:04.761Z,100743.97
2018-07-30T17:14:33.076Z,100742.86
2018-07-30T17:17:01.449Z,100746.11
2018-07-30T17:19:29.974Z,100748.84
2018-07-30T17:21:58.276Z,100748.55
2018-07-30T17:24:26.597Z,100742.63
2018-07-30T17:26:54.932Z,100747.04
2018-07-30T17:29:23.331Z,100746.20
2018-07-30T17:31:51.656Z,100746.81
2018-07-30T17:34:20.015Z,100742.23
2018-07-30T17:36:48.376Z,100747.50
2018-07-30T17:39:16.728Z,100749.99
2018-07-30T17:41:45.069Z,100738.58
2018-07-30T17:44:13.419Z,100743.55
2018-07-30T17:46:41.839Z,100740.38
2018-07-30T17:49:10.137Z,100736.39
2018-07-30T17:51:38.476Z,100739.45
2018-07-30T17:54:06.821Z,100743.03
2018-07-30T17:56:35.210Z,100745.28
2018-07-30T17:59:03.558Z,100740.95
2018-07-30T18:01:31.904Z,100741.33
2018-07-30T18:04:00.224Z,100738.64
2018-07-30T18:06:28.597Z,100736.53
2018-07-30T18:08:56.930Z,100735.74
2018-07-30T18:11:25.290Z,100732.55
2018-07-30T18:13:53.619Z,100736.68
2018-07-30T18:16:22.029Z,100734.81
2018-07-30T18:18:50.373Z,100734.27
2018-07-30T18:21:18.784Z,100739.46
2018-07-30T18:23:47.216Z,100749.25
2018-07-30T18:26:15.550Z,100747.09
2018-07-30T18:28:43.871Z,100752.56
2018-07-30T18:31:12.195Z,100750.15
2018-07-30T18:33:40.595Z,100748.25
2018-07-30T18:36:08.922Z,100752.33
2018-07-30T18:38:37.266Z,100746.94
2018-07-30T18:41:05.654Z,100746.16
2018-07-30T18:43:33.973Z,100744.00
2018-07-30T18:46:02.369Z,100743.46
2018-07-30T18:48:30.744Z,100742.39
2018-07-30T18:50:59.131Z,100739.42
2018-07-30T18:53:27.509Z,100742.17
2018-07-30T18:55:55.845Z,100738.94
2018-07-30T18:58:24.229Z,100745.71
2018-07-30T19:00:52.590Z,100750.36
2018-07-30T19:03:20.956Z,100753.61
2018-07-30T19:05:49.332Z,100760.67
2018-07-30T19:08:17.724Z,100760.66
2018-07-30T19:10:46.085Z,100764.16
2018-07-30T19:13:14.473Z,100766.89
2018-07-30T19:15:42.850Z,100772.84
2018-07-30T19:18:11.203Z,100777.73
2018-07-30T19:20:39.538Z,100782.61
2018-07-30T19:23:07.934Z,100784.78
2018-07-30T19:25:36.250Z,100782.86
2018-07-30T19:28:04.577Z,100784.21
2018-07-30T19:30:32.967Z,100783.11
2018-07-30T19:33:01.368Z,100783.91
2018-07-30T19:35:30.097Z,100784.95
2018-07-30T19:37:58.429Z,100786.03
2018-07-30T19:40:26.800Z,100791.98
2018-07-30T19:42:55.206Z,100790.88
2018-07-30T19:45:23.543Z,100795.76
2018-07-30T19:47:51.903Z,100797.91
2018-07-30T19:50:20.256Z,100794.34
2018-07-30T19:52:48.583Z,100798.39
2018-07-30T19:55:16.928Z,100799.73
2018-07-30T19:57:45.361Z,100798.66
2018-07-30T20:00:13.573Z,100799.16
2018-07-30T20:02:41.911Z,100799.97
2018-07-30T20:05:10.319Z,100802.38
2018-07-30T20:07:38.624Z,100794.23
2018-07-30T20:10:07.045Z,100800.42
2018-07-30T20:12:35.434Z,100800.59
2018-07-30T20:15:03.877Z,100811.66
2018-07-30T20:17:32.232Z,100811.59
2018-07-30T20:20:00.569Z,100805.35
2018-07-30T20:22:28.925Z,100815.86
2018-07-30T20:24:57.364Z,100815.23
2018-07-30T20:27:25.717Z,100826.25
2018-07-30T20:29:54.161Z,100828.62
2018-07-30T20:32:22.547Z,100823.75
2018-07-30T20:34:50.920Z,100824.36
2018-07-30T20:37:19.247Z,100829.77
2018-07-30T20:39:47.699Z,100829.77
2018-07-30T20:42:16.077Z,100838.84
2018-07-30T20:44:44.427Z,100827.94
2018-07-30T20:47:12.789Z,100835.44
2018-07-30T20:49:41.157Z,100836.19
2018-07-30T20:52:09.511Z,100839.09
2018-07-30T20:54:37.900Z,100837.88
2018-07-30T20:57:06.266Z,100839.97
2018-07-30T20:59:34.974Z,100836.61
2018-07-30T21:02:03.375Z,100838.70
2018-07-30T21:04:31.754Z,100841.09
2018-07-30T21:07:00.139Z,100838.31
2018-07-30T21:09:28.486Z,100843.41
2018-07-30T21:11:56.839Z,100841.74
2018-07-30T21:14:25.192Z,100851.39
2018-07-30T21:16:53.517Z,100849.45
2018-07-30T21:19:21.894Z,100846.17
2018-07-30T21:21:50.326Z,100845.32
2018-07-30T21:24:18.682Z,100844.73
2018-07-30T21:26:47.005Z,100848.20
2018-07-30T21:29:15.500Z,100847.34
2018-07-30T21:31:44.362Z,100844.86
2018-07-30T21:34:12.885Z,100844.55
2018-07-30T21:36:41.430Z,100842.16
2018-07-30T21:39:13.870Z,100844.86
2018-07-30T21:41:42.412Z,100842.97
2018-07-30T21:44:11.718Z,100839.46
2018-07-30T21:46:41.423Z,100839.46
2018-07-30T21:49:09.793Z,100837.49
2018-07-30T21:51:38.110Z,100840.09
2018-07-30T21:54:06.664Z,100839.64
2018-07-30T21:56:34.904Z,100844.95
2018-07-30T21:59:03.509Z,100847.05
2018-07-30T22:01:31.975Z,100843.45
2018-07-30T22:04:00.320Z,100852.52
2018-07-30T22:06:28.691Z,100848.41
2018-07-30T22:08:57.017Z,100855.36
2018-07-30T22:11:25.428Z,100858.29
2018-07-30T22:13:53.784Z,100852.57
2018-07-30T22:16:22.332Z,100847.66
2018-07-30T22:18:50.637Z,100849.55
2018-07-30T22:21:18.990Z,100850.08
2018-07-30T22:23:47.353Z,100850.84
2018-07-30T22:26:15.784Z,100852.98
2018-07-30T22:28:44.104Z,100852.66
2018-07-30T22:31:12.597Z,100860.70
2018-07-30T22:33:40.980Z,100856.33
2018-07-30T22:36:09.456Z,100852.77
2018-07-30T22:38:37.758Z,100866.20
2018-07-30T22:41:06.308Z,100872.13
2018-07-30T22:43:34.620Z,100865.11
2018-07-30T22:46:02.970Z,100865.92
2018-07-30T22:48:31.313Z,100868.25
2018-07-30T22:50:59.667Z,100865.98
2018-07-30T22:53:28.116Z,100865.91
2018-07-30T22:55:56.473Z,100872.88
2018-07-30T22:58:24.785Z,100870.10
2018-07-30T23:00:53.108Z,100870.27
2018-07-30T23:03:21.742Z,100869.94
2018-07-30T23:05:50.102Z,100866.16
2018-07-30T23:08:18.469Z,100859.64
2018-07-30T23:10:46.986Z,100860.98
2018-07-30T23:13:15.305Z,100859.08
2018-07-30T23:15:43.653Z,100855.74
2018-07-30T23:18:12.040Z,100851.68
2018-07-30T23:20:40.489Z,100852.44
2018-07-30T23:23:08.881Z,100853.19
2018-07-30T23:25:37.332Z,100851.09
2018-07-30T23:28:05.737Z,100846.84
2018-07-30T23:30:34.081Z,100845.81
2018-07-30T23:33:02.477Z,100844.94
2018-07-30T23:35:30.797Z,100844.78
2018-07-30T23:37:59.151Z,100845.45
2018-07-30T23:40:27.525Z,100838.91
2018-07-30T23:42:55.828Z,100845.56
2018-07-30T23:45:24.383Z,100847.41
2018-07-30T23:47:52.828Z,100838.77
2018-07-30T23:50:21.212Z,100842.50
2018-07-30T23:52:49.553Z,100843.03
2018-07-30T23:55:17.920Z,100841.94
2018-07-30T23:57:46.265Z,100844.55
